Walton on the Naze, United Kingdom
Current Conditions -  °F | °C
As of 7:50 AM on Sunday 23 Nov 2014 (Local Time) from EGUW Reporting Station
Moderate Rain Moderate Rain  
Wind Chill: 10°   Ceiling: 200
Heat Index: 10°   Visibility: 2.9mi
Dew Point: 10°   Wind: 10mph
Humidity: 100%   Direction: 340°NNW
Pressure: 29.94"   Gusts: NA
Location:  51.85°N, 1.27°E
Report Text: EGUW 230750Z AUTO 34009KT 4700 RA BKN002/// BKN014/// 10/10 Q1014
Loading
Personal Weather Stations






























Interactive Weather Map New forecast layout! Learn more

10-Day Weather Forecast

Advertisements
Track Severe Weather on mobile